createdAt,value
2023-01-04T00:01:02.251Z,7.72
2023-01-04T00:02:06.108Z,7.63
2023-01-04T00:03:09.804Z,7.15
2023-01-04T00:04:12.650Z,7.55
2023-01-04T00:05:16.261Z,7.87
2023-01-04T00:06:19.263Z,7.72
2023-01-04T00:07:22.659Z,6.70
2023-01-04T00:08:25.450Z,7.28
2023-01-04T00:09:28.866Z,8.07
2023-01-04T00:10:31.169Z,7.15
2023-01-04T00:11:34.596Z,8.10
2023-01-04T00:12:36.979Z,8.10
2023-01-04T00:13:40.876Z,8.77
2023-01-04T00:14:44.220Z,9.25
2023-01-04T00:15:46.485Z,8.57
2023-01-04T00:16:49.954Z,8.50
2023-01-04T00:17:53.921Z,8.68
2023-01-04T00:18:57.845Z,8.20
2023-01-04T00:20:00.202Z,8.30
2023-01-04T00:21:12.436Z,7.15
2023-01-04T00:22:15.214Z,7.50
2023-01-04T00:23:18.813Z,8.10
2023-01-04T00:24:21.377Z,8.70
2023-01-04T00:25:24.644Z,8.15
2023-01-04T00:26:28.883Z,7.23
2023-01-04T00:27:32.222Z,8.93
2023-01-04T00:28:34.637Z,9.52
2023-01-04T00:29:38.048Z,8.60
2023-01-04T00:30:40.315Z,8.02
2023-01-04T00:31:44.902Z,6.90
2023-01-04T00:32:47.309Z,8.93
2023-01-04T00:33:52.124Z,9.63
2023-01-04T00:34:55.458Z,9.38
2023-01-04T00:36:03.045Z,8.30
2023-01-04T00:37:06.473Z,8.43
2023-01-04T00:38:08.879Z,8.55
2023-01-04T00:39:15.603Z,9.90
2023-01-04T00:40:18.076Z,8.20
2023-01-04T00:41:56.943Z,8.63
2023-01-04T00:42:44.703Z,8.02
2023-01-04T00:43:46.977Z,9.77
2023-01-04T00:44:50.449Z,8.68
2023-01-04T00:45:53.212Z,8.00
2023-01-04T00:46:56.577Z,8.52
2023-01-04T00:47:58.880Z,7.90
2023-01-04T00:49:04.072Z,7.85
2023-01-04T00:50:07.256Z,8.30
2023-01-04T00:51:10.571Z,7.88
2023-01-04T00:52:12.956Z,8.27
2023-01-04T00:53:17.560Z,8.35
2023-01-04T00:54:21.648Z,8.30
2023-01-04T00:55:24.374Z,7.88
2023-01-04T00:56:29.130Z,7.80
2023-01-04T00:57:32.421Z,7.57
2023-01-04T00:58:34.729Z,7.80
2023-01-04T00:59:38.158Z,8.52
2023-01-04T01:00:40.821Z,6.57
2023-01-04T01:01:45.052Z,7.95
2023-01-04T01:02:47.872Z,8.38
2023-01-04T01:03:55.289Z,7.15
2023-01-04T01:04:59.470Z,7.63
2023-01-04T01:06:03.209Z,7.35
2023-01-04T01:07:06.566Z,7.22
2023-01-04T01:08:25.859Z,6.68
2023-01-04T01:09:29.230Z,7.47
2023-01-04T01:10:31.528Z,6.95
2023-01-04T01:11:36.848Z,6.82
2023-01-04T01:12:39.334Z,7.72
2023-01-04T01:13:42.828Z,6.55
2023-01-04T01:14:45.293Z,7.03
2023-01-04T01:15:48.721Z,8.07
2023-01-04T01:16:57.264Z,7.80
2023-01-04T01:18:01.772Z,7.57
2023-01-04T01:19:05.133Z,7.07
2023-01-04T01:20:10.373Z,7.53
2023-01-04T01:21:16.824Z,7.00
2023-01-04T01:22:19.030Z,6.80
2023-01-04T01:23:22.741Z,7.00
2023-01-04T01:24:25.604Z,7.22
2023-01-04T01:25:28.893Z,6.20
2023-01-04T01:26:31.133Z,6.60
2023-01-04T01:27:34.533Z,7.28
2023-01-04T01:28:36.893Z,7.32
2023-01-04T01:29:40.451Z,6.70
2023-01-04T01:30:44.080Z,6.87
2023-01-04T01:31:47.613Z,6.28
2023-01-04T01:32:50.039Z,7.03
2023-01-04T01:33:55.247Z,6.70
2023-01-04T01:34:57.451Z,7.20
2023-01-04T01:36:03.529Z,6.22
2023-01-04T01:37:06.255Z,6.50
2023-01-04T01:38:09.687Z,6.95
2023-01-04T01:39:12.217Z,6.50
2023-01-04T01:40:15.901Z,6.50
2023-01-04T01:41:20.248Z,6.60
2023-01-04T01:42:24.515Z,6.93
2023-01-04T01:43:50.272Z,6.22
2023-01-04T01:44:59.659Z,6.13
2023-01-04T01:46:03.410Z,6.47
2023-01-04T01:47:05.962Z,5.95
2023-01-04T01:48:14.566Z,5.70
2023-01-04T01:49:24.437Z,5.95
2023-01-04T01:50:32.769Z,5.85
2023-01-04T01:51:37.371Z,6.82
2023-01-04T01:52:41.653Z,5.93
2023-01-04T01:53:47.277Z,5.75
2023-01-04T01:54:56.402Z,5.95
2023-01-04T01:56:00.745Z,6.28
2023-01-04T01:57:07.221Z,5.65
2023-01-04T01:58:13.468Z,6.13
2023-01-04T01:59:18.356Z,6.47
2023-01-04T02:00:21.068Z,6.38
2023-01-04T02:01:25.271Z,6.60
2023-01-04T02:02:27.844Z,6.32
2023-01-04T02:03:33.858Z,5.97
2023-01-04T02:04:37.933Z,5.93
2023-01-04T02:05:42.047Z,5.45
2023-01-04T02:06:50.560Z,5.75
2023-01-04T02:07:54.535Z,5.43
2023-01-04T02:08:57.213Z,5.45
2023-01-04T02:10:00.617Z,4.95
2023-01-04T02:11:03.013Z,5.40
2023-01-04T02:12:06.859Z,4.75
2023-01-04T02:13:13.066Z,5.57
2023-01-04T02:14:28.853Z,5.07
2023-01-04T02:15:39.726Z,4.72
2023-01-04T02:17:02.391Z,5.00
2023-01-04T02:18:12.518Z,4.50
2023-01-04T02:19:38.243Z,4.80
2023-01-04T02:20:49.423Z,4.70
2023-01-04T02:22:09.958Z,5.55
2023-01-04T02:23:46.595Z,5.50
2023-01-04T02:25:05.857Z,5.40
2023-01-04T02:26:45.731Z,4.88
2023-01-04T02:27:53.531Z,5.10
2023-01-04T02:29:27.223Z,5.43
2023-01-04T02:30:59.004Z,5.00
2023-01-04T02:32:05.356Z,5.18
2023-01-04T02:33:18.136Z,6.20
2023-01-04T02:34:30.665Z,4.70
2023-01-04T02:35:43.404Z,5.57
2023-01-04T02:36:57.781Z,4.80
2023-01-04T02:38:10.917Z,5.07
2023-01-04T02:39:26.129Z,4.50
2023-01-04T02:40:35.638Z,4.33
2023-01-04T02:41:45.435Z,3.80
2023-01-04T02:43:16.297Z,4.43
2023-01-04T02:44:43.220Z,4.47
2023-01-04T02:45:50.556Z,4.78
2023-01-04T02:47:00.642Z,4.20
2023-01-04T02:48:23.107Z,4.28
2023-01-04T02:49:43.936Z,4.70
2023-01-04T02:50:53.293Z,4.80
2023-01-04T02:51:56.914Z,4.45
2023-01-04T02:53:01.359Z,4.47
2023-01-04T02:54:07.945Z,4.82
2023-01-04T02:55:10.330Z,4.00
2023-01-04T02:56:20.367Z,4.20
2023-01-04T02:57:33.238Z,4.38
2023-01-04T02:58:58.455Z,4.60
2023-01-04T03:00:18.187Z,4.20
2023-01-04T03:01:47.966Z,4.00
2023-01-04T03:03:36.285Z,3.92
2023-01-04T03:05:13.434Z,3.80
2023-01-04T03:06:24.763Z,4.10
2023-01-04T03:07:35.170Z,4.15
2023-01-04T03:08:44.058Z,4.40
2023-01-04T03:09:51.034Z,4.40
2023-01-04T03:11:03.268Z,4.43
2023-01-04T03:12:28.984Z,3.72
2023-01-04T03:13:36.055Z,4.13
2023-01-04T03:14:44.928Z,4.20
2023-01-04T03:15:53.964Z,4.38
2023-01-04T03:16:57.714Z,3.92
2023-01-04T03:18:09.815Z,4.10
2023-01-04T03:19:37.566Z,4.18
2023-01-04T03:20:41.163Z,3.47
2023-01-04T03:21:46.438Z,3.95
2023-01-04T03:23:13.193Z,4.03
2023-01-04T03:24:36.152Z,3.35
2023-01-04T03:25:59.699Z,3.55
2023-01-04T03:27:22.603Z,4.20
2023-01-04T03:28:46.845Z,4.25
2023-01-04T03:30:15.981Z,3.42
2023-01-04T03:31:41.189Z,3.40
2023-01-04T03:33:06.253Z,3.50
2023-01-04T03:34:27.731Z,3.63
2023-01-04T03:35:39.117Z,3.90
2023-01-04T03:36:50.483Z,4.03
2023-01-04T03:38:14.037Z,3.90
2023-01-04T03:39:40.087Z,4.90
2023-01-04T03:41:04.952Z,3.58
2023-01-04T03:42:36.492Z,3.80
2023-01-04T03:44:03.752Z,3.67
2023-01-04T03:45:33.009Z,4.27
2023-01-04T03:46:58.401Z,3.90
2023-01-04T03:48:29.152Z,3.35
2023-01-04T03:49:38.638Z,3.55
2023-01-04T03:50:47.242Z,4.32
2023-01-04T03:51:52.345Z,3.75
2023-01-04T03:52:57.737Z,4.28
2023-01-04T03:54:08.188Z,4.10
2023-01-04T03:55:12.317Z,4.03
2023-01-04T03:56:18.669Z,4.07
2023-01-04T03:57:22.517Z,4.67
2023-01-04T03:58:26.589Z,3.70
2023-01-04T03:59:29.108Z,3.92
2023-01-04T04:00:32.800Z,3.85
2023-01-04T04:01:36.485Z,4.32
2023-01-04T04:02:41.974Z,3.90
2023-01-04T04:04:02.737Z,4.43
2023-01-04T04:05:24.598Z,3.92
2023-01-04T04:06:47.122Z,5.43
2023-01-04T04:08:08.581Z,4.80
2023-01-04T04:09:11.966Z,4.80
2023-01-04T04:10:14.879Z,4.82
2023-01-04T04:11:33.451Z,4.93
2023-01-04T04:12:35.889Z,4.35
2023-01-04T04:13:39.329Z,4.60
2023-01-04T04:14:41.668Z,4.43
2023-01-04T04:15:45.090Z,4.57
2023-01-04T04:16:47.827Z,4.57
2023-01-04T04:17:51.204Z,4.90
2023-01-04T04:18:53.509Z,4.88
2023-01-04T04:19:56.905Z,4.50
2023-01-04T04:20:59.612Z,4.38
2023-01-04T04:22:04.521Z,5.03
2023-01-04T04:23:06.857Z,4.28
2023-01-04T04:24:17.414Z,4.97
2023-01-04T04:25:19.880Z,4.70
2023-01-04T04:26:23.731Z,5.15
2023-01-04T04:27:26.558Z,4.60
2023-01-04T04:28:29.971Z,5.05
2023-01-04T04:29:32.730Z,4.40
2023-01-04T04:30:36.155Z,4.37
2023-01-04T04:31:38.749Z,4.32
2023-01-04T04:32:42.161Z,4.82
2023-01-04T04:33:44.519Z,4.65
2023-01-04T04:34:47.802Z,4.15
2023-01-04T04:35:51.739Z,4.53
2023-01-04T04:36:55.234Z,5.32
2023-01-04T04:37:59.017Z,4.30
2023-01-04T04:39:02.697Z,5.13
2023-01-04T04:40:05.507Z,4.10
2023-01-04T04:41:27.713Z,4.50
2023-01-04T04:42:30.207Z,4.85
2023-01-04T04:43:34.534Z,4.57
2023-01-04T04:44:37.212Z,5.03
2023-01-04T04:45:40.466Z,4.50
2023-01-04T04:46:43.367Z,5.70
2023-01-04T04:47:46.718Z,4.97
2023-01-04T04:48:49.081Z,4.95
2023-01-04T04:49:52.494Z,5.07
2023-01-04T04:50:54.945Z,4.53
2023-01-04T04:51:58.337Z,4.90
2023-01-04T04:53:02.313Z,4.93
2023-01-04T04:54:06.182Z,5.30
2023-01-04T04:55:09.098Z,4.57
2023-01-04T04:56:12.560Z,4.72
2023-01-04T04:57:15.175Z,4.53
2023-01-04T04:58:19.044Z,5.10
2023-01-04T04:59:22.552Z,5.40
2023-01-04T05:00:25.061Z,4.63
2023-01-04T05:01:28.759Z,4.72
2023-01-04T05:02:31.231Z,5.10
2023-01-04T05:03:35.350Z,4.78
2023-01-04T05:04:38.722Z,4.80
2023-01-04T05:05:40.982Z,4.68
2023-01-04T05:06:44.425Z,4.35
2023-01-04T05:07:46.773Z,4.95
2023-01-04T05:08:51.628Z,5.28
2023-01-04T05:09:53.921Z,5.30
2023-01-04T05:10:57.376Z,4.53
2023-01-04T05:12:18.128Z,4.82
2023-01-04T05:13:20.517Z,5.20
2023-01-04T05:14:22.953Z,5.55
2023-01-04T05:15:26.428Z,5.40
2023-01-04T05:16:28.847Z,6.20
2023-01-04T05:17:32.186Z,4.13
2023-01-04T05:18:35.012Z,5.65
2023-01-04T05:19:38.325Z,4.10
2023-01-04T05:20:40.728Z,4.82
2023-01-04T05:21:45.643Z,5.78
2023-01-04T05:22:48.031Z,5.18
2023-01-04T05:23:52.919Z,5.53
2023-01-04T05:24:55.558Z,5.28
2023-01-04T05:26:02.296Z,4.88
2023-01-04T05:27:04.712Z,6.75
2023-01-04T05:28:08.264Z,5.28
2023-01-04T05:29:30.814Z,6.05
2023-01-04T05:30:51.123Z,5.50
2023-01-04T05:31:54.467Z,5.95
2023-01-04T05:32:57.281Z,6.35
2023-01-04T05:34:00.686Z,4.80
2023-01-04T05:35:03.051Z,5.63
2023-01-04T05:36:06.851Z,5.60
2023-01-04T05:37:09.497Z,5.03
2023-01-04T05:38:12.976Z,5.63
2023-01-04T05:39:16.733Z,5.90
2023-01-04T05:40:20.218Z,4.85
2023-01-04T05:41:40.962Z,6.18
2023-01-04T05:42:44.400Z,6.45
2023-01-04T05:43:46.897Z,4.90
2023-01-04T05:44:50.188Z,5.18
2023-01-04T05:45:55.281Z,5.47
2023-01-04T05:46:57.727Z,5.00
2023-01-04T05:48:01.151Z,5.47
2023-01-04T05:49:03.395Z,5.07
2023-01-04T05:50:08.172Z,5.20
2023-01-04T05:51:10.421Z,5.97
2023-01-04T05:52:13.719Z,5.43
2023-01-04T05:53:19.022Z,6.10
2023-01-04T05:54:23.016Z,5.45
2023-01-04T05:55:26.405Z,5.35
2023-01-04T05:56:28.760Z,5.37
2023-01-04T05:57:32.045Z,5.05
2023-01-04T05:58:34.336Z,5.68
2023-01-04T05:59:41.932Z,6.40
2023-01-04T06:00:44.695Z,5.57
2023-01-04T06:01:48.299Z,5.78
2023-01-04T06:02:52.801Z,5.53
2023-01-04T06:03:55.511Z,5.22
2023-01-04T06:05:00.295Z,5.53
2023-01-04T06:06:02.743Z,5.13
2023-01-04T06:07:06.560Z,5.00
2023-01-04T06:08:08.974Z,5.90
2023-01-04T06:09:12.579Z,5.97
2023-01-04T06:10:17.907Z,5.60
2023-01-04T06:11:25.564Z,5.00
2023-01-04T06:12:30.898Z,5.57
2023-01-04T06:13:33.230Z,5.85
2023-01-04T06:14:36.653Z,5.00
2023-01-04T06:15:43.185Z,6.18
2023-01-04T06:16:45.996Z,5.25
2023-01-04T06:17:49.408Z,5.37
2023-01-04T06:18:51.551Z,5.22
2023-01-04T06:19:54.941Z,4.90
2023-01-04T06:20:57.596Z,5.50
2023-01-04T06:22:00.961Z,4.78
2023-01-04T06:23:03.314Z,5.28
2023-01-04T06:24:07.157Z,5.72
2023-01-04T06:25:11.341Z,5.25
2023-01-04T06:26:14.956Z,5.25
2023-01-04T06:27:18.306Z,5.32
2023-01-04T06:28:20.682Z,4.97
2023-01-04T06:29:24.091Z,4.88
2023-01-04T06:30:26.392Z,5.93
2023-01-04T06:31:30.718Z,5.93
2023-01-04T06:32:34.277Z,5.78
2023-01-04T06:33:37.228Z,5.63
2023-01-04T06:34:40.592Z,6.13
2023-01-04T06:35:42.886Z,5.50
2023-01-04T06:36:46.647Z,5.13
2023-01-04T06:37:49.979Z,5.88
2023-01-04T06:38:52.382Z,5.40
2023-01-04T06:39:56.264Z,5.45
2023-01-04T06:40:59.064Z,5.25
2023-01-04T06:42:06.693Z,5.05
2023-01-04T06:43:09.581Z,5.60
2023-01-04T06:44:12.957Z,4.88
2023-01-04T06:45:16.419Z,5.32
2023-01-04T06:46:20.452Z,4.85
2023-01-04T06:47:22.861Z,4.53
2023-01-04T06:48:26.421Z,4.68
2023-01-04T06:49:28.696Z,4.57
2023-01-04T06:50:31.981Z,5.22
2023-01-04T06:51:34.356Z,5.13
2023-01-04T06:52:37.672Z,4.03
2023-01-04T06:53:40.041Z,4.40
2023-01-04T06:54:43.331Z,4.45
2023-01-04T06:55:47.195Z,4.45
2023-01-04T06:56:49.464Z,4.65
2023-01-04T06:57:59.319Z,4.78
2023-01-04T06:59:02.039Z,4.75
2023-01-04T07:00:06.414Z,4.57
2023-01-04T07:01:08.853Z,4.93
2023-01-04T07:02:16.178Z,4.57
2023-01-04T07:03:19.022Z,4.43
2023-01-04T07:04:22.467Z,4.40
2023-01-04T07:05:24.724Z,4.50
2023-01-04T07:06:28.042Z,4.28
2023-01-04T07:07:30.414Z,5.25
2023-01-04T07:08:34.355Z,4.85
2023-01-04T07:09:38.387Z,4.97
2023-01-04T07:10:41.473Z,4.97
2023-01-04T07:11:44.852Z,5.00
2023-01-04T07:12:47.492Z,4.70
2023-01-04T07:13:52.928Z,4.43
2023-01-04T07:14:56.563Z,4.70
2023-01-04T07:15:58.993Z,4.88
2023-01-04T07:17:02.497Z,6.93
2023-01-04T07:18:04.945Z,7.38
2023-01-04T07:19:10.001Z,7.80
2023-01-04T07:20:12.443Z,6.45
2023-01-04T07:21:15.934Z,5.47
2023-01-04T07:22:19.050Z,5.22
2023-01-04T07:23:22.683Z,5.35
2023-01-04T07:24:29.973Z,5.30
2023-01-04T07:25:34.354Z,4.97
2023-01-04T07:26:36.766Z,4.82
2023-01-04T07:27:40.097Z,5.03
2023-01-04T07:29:00.913Z,5.05
2023-01-04T07:30:06.574Z,5.78
2023-01-04T07:31:09.005Z,5.40
2023-01-04T07:32:14.190Z,4.83
2023-01-04T07:33:16.755Z,5.00
2023-01-04T07:34:21.968Z,4.82
2023-01-04T07:35:24.755Z,5.55
2023-01-04T07:36:28.346Z,6.18
2023-01-04T07:37:30.647Z,7.00
2023-01-04T07:38:35.110Z,6.57
2023-01-04T07:39:38.973Z,7.10
2023-01-04T07:40:56.093Z,7.72
2023-01-04T07:42:00.792Z,6.97
2023-01-04T07:43:03.284Z,7.43
2023-01-04T07:44:07.164Z,7.07
2023-01-04T07:45:12.479Z,8.88
2023-01-04T07:46:15.918Z,7.70
2023-01-04T07:47:19.409Z,9.27
2023-01-04T07:48:21.669Z,11.75
2023-01-04T07:49:25.074Z,11.85
2023-01-04T07:50:27.451Z,12.00
2023-01-04T07:51:31.692Z,8.07
2023-01-04T07:52:35.145Z,9.13
2023-01-04T07:53:38.663Z,8.00
2023-01-04T07:54:42.028Z,9.23
2023-01-04T07:55:44.518Z,9.00
2023-01-04T07:56:49.239Z,8.35
2023-01-04T07:57:55.064Z,8.38
2023-01-04T07:58:59.433Z,8.27
2023-01-04T08:00:02.769Z,8.35
2023-01-04T08:01:12.978Z,8.32
2023-01-04T08:02:15.493Z,7.07
2023-01-04T08:03:18.960Z,7.60
2023-01-04T08:04:29.664Z,7.73
2023-01-04T08:05:35.462Z,7.18
2023-01-04T08:06:39.754Z,7.43
2023-01-04T08:07:42.195Z,8.70
2023-01-04T08:08:46.333Z,7.97
2023-01-04T08:09:49.836Z,9.30
2023-01-04T08:10:52.318Z,9.40
2023-01-04T08:11:55.720Z,9.15
2023-01-04T08:12:59.434Z,8.43
2023-01-04T08:14:02.937Z,8.88
2023-01-04T08:15:06.268Z,8.80
2023-01-04T08:16:21.195Z,9.25
2023-01-04T08:17:24.584Z,9.23
2023-01-04T08:18:26.914Z,9.05
2023-01-04T08:19:30.423Z,9.25
2023-01-04T08:20:34.052Z,10.25
2023-01-04T08:21:36.990Z,9.85
2023-01-04T08:22:40.733Z,9.82
2023-01-04T08:23:43.033Z,9.48
2023-01-04T08:24:46.397Z,9.45
2023-01-04T08:25:48.702Z,8.93
2023-01-04T08:26:52.260Z,9.50
2023-01-04T08:27:55.038Z,9.32
2023-01-04T08:28:58.826Z,9.50
2023-01-04T08:30:01.338Z,9.30
2023-01-04T08:31:07.835Z,9.82
2023-01-04T08:32:12.747Z,9.70
2023-01-04T08:33:15.898Z,9.25
2023-01-04T08:34:19.281Z,10.65
2023-01-04T08:35:21.874Z,8.27
2023-01-04T08:36:27.961Z,9.23
2023-01-04T08:37:32.071Z,9.15
2023-01-04T08:39:58.699Z,9.68
2023-01-04T08:41:11.508Z,8.70
2023-01-04T08:42:30.798Z,8.77
2023-01-04T08:43:34.085Z,8.73
2023-01-04T08:44:37.643Z,8.85
2023-01-04T08:45:40.983Z,10.00
2023-01-04T08:46:43.422Z,8.68
2023-01-04T08:47:48.237Z,9.23
2023-01-04T08:48:53.326Z,8.63
2023-01-04T08:49:55.960Z,9.38
2023-01-04T08:51:00.506Z,9.20
2023-01-04T08:52:03.426Z,9.45
2023-01-04T08:53:06.960Z,9.25
2023-01-04T08:54:09.860Z,9.57
2023-01-04T08:55:15.948Z,8.35
2023-01-04T08:56:21.266Z,10.27
2023-01-04T08:57:24.679Z,8.38
2023-01-04T08:58:27.537Z,9.47
2023-01-04T08:59:30.929Z,9.15
2023-01-04T09:00:33.682Z,9.52
2023-01-04T09:01:37.501Z,8.90
2023-01-04T09:02:41.202Z,7.90
2023-01-04T09:03:46.304Z,8.75
2023-01-04T09:04:50.414Z,9.10
2023-01-04T09:05:53.861Z,9.15
2023-01-04T09:06:57.249Z,9.25
2023-01-04T09:08:01.170Z,8.95
2023-01-04T09:09:04.576Z,10.50
2023-01-04T09:10:09.051Z,9.52
2023-01-04T09:11:13.702Z,9.10
2023-01-04T09:12:17.103Z,9.55
2023-01-04T09:13:19.371Z,9.00
2023-01-04T09:14:22.679Z,8.38
2023-01-04T09:15:26.015Z,9.05
2023-01-04T09:16:28.510Z,8.50
2023-01-04T09:17:31.816Z,9.75
2023-01-04T09:18:35.065Z,8.68
2023-01-04T09:19:39.807Z,9.80
2023-01-04T09:20:43.345Z,9.45
2023-01-04T09:21:45.726Z,10.77
2023-01-04T09:22:49.193Z,10.63
2023-01-04T09:23:52.573Z,10.10
2023-01-04T09:24:55.925Z,9.70
2023-01-04T09:25:58.156Z,9.77
2023-01-04T09:27:01.554Z,10.45
2023-01-04T09:28:03.988Z,9.93
2023-01-04T09:29:07.619Z,10.00
2023-01-04T09:30:12.366Z,9.80
2023-01-04T09:31:18.097Z,9.55
2023-01-04T09:32:21.742Z,10.55
2023-01-04T09:33:41.250Z,9.43
2023-01-04T09:34:49.042Z,10.18
2023-01-04T09:35:51.335Z,9.70
2023-01-04T09:36:54.709Z,10.27
2023-01-04T09:37:57.222Z,10.13
2023-01-04T09:39:00.622Z,10.68
2023-01-04T09:40:04.095Z,9.90
2023-01-04T09:41:15.175Z,10.00
2023-01-04T09:42:24.041Z,10.30
2023-01-04T09:43:35.007Z,10.23
2023-01-04T09:46:13.602Z,10.45
2023-01-04T09:47:23.065Z,10.10
2023-01-04T09:48:30.681Z,10.52
2023-01-04T09:49:42.410Z,9.95
2023-01-04T09:50:54.151Z,10.18
2023-01-04T09:52:01.999Z,8.80
2023-01-04T09:53:13.200Z,9.77
2023-01-04T09:54:20.916Z,8.75
2023-01-04T09:55:38.293Z,9.35
2023-01-04T09:56:50.625Z,8.40
2023-01-04T09:57:57.681Z,8.95
2023-01-04T09:59:03.362Z,9.85
2023-01-04T10:00:14.551Z,9.57
2023-01-04T10:01:23.036Z,8.75
2023-01-04T10:02:36.642Z,8.52
2023-01-04T10:03:43.393Z,8.25
2023-01-04T10:04:49.094Z,8.80
2023-01-04T10:05:56.757Z,9.18
2023-01-04T10:07:04.932Z,8.93
2023-01-04T10:08:14.572Z,9.00
2023-01-04T10:09:21.166Z,9.25
2023-01-04T10:10:44.756Z,8.68
2023-01-04T10:12:02.944Z,8.98
2023-01-04T10:13:15.165Z,8.95
2023-01-04T10:14:35.623Z,8.50
2023-01-04T10:15:43.906Z,8.23
2023-01-04T10:17:29.116Z,8.07
2023-01-04T10:21:41.870Z,8.27
2023-01-04T10:22:56.814Z,9.10
2023-01-04T10:24:32.867Z,8.02
2023-01-04T10:25:44.855Z,8.27
2023-01-04T10:26:49.342Z,8.93
2023-01-04T10:28:01.389Z,8.80
2023-01-04T10:29:27.471Z,8.25
2023-01-04T10:30:40.370Z,7.70
2023-01-04T10:31:48.026Z,8.30
2023-01-04T10:32:58.467Z,8.18
2023-01-04T10:34:16.860Z,8.82
2023-01-04T10:35:22.947Z,8.40
2023-01-04T10:36:31.627Z,8.98
2023-01-04T10:37:38.619Z,8.35
2023-01-04T10:38:41.284Z,8.75
2023-01-04T10:39:46.507Z,8.75
2023-01-04T10:40:50.563Z,8.07
2023-01-04T10:41:56.218Z,8.70
2023-01-04T10:43:08.002Z,8.63
2023-01-04T10:44:18.317Z,8.52
2023-01-04T10:45:31.397Z,8.20
2023-01-04T10:46:42.160Z,8.13
2023-01-04T10:47:54.293Z,8.35
2023-01-04T10:49:06.339Z,7.90
2023-01-04T10:50:16.669Z,7.85
2023-01-04T10:51:31.985Z,7.80
2023-01-04T10:52:44.446Z,7.57
2023-01-04T10:53:54.183Z,7.83
2023-01-04T10:55:01.119Z,8.43
2023-01-04T10:56:23.626Z,8.23
2023-01-04T10:57:36.839Z,8.82
2023-01-04T10:58:47.013Z,8.23
2023-01-04T10:59:56.361Z,8.18
2023-01-04T11:01:06.061Z,7.80
2023-01-04T11:02:19.515Z,8.23
2023-01-04T11:03:29.923Z,8.80
2023-01-04T11:04:38.954Z,8.65
2023-01-04T11:05:46.582Z,9.13
2023-01-04T11:06:57.513Z,7.88
2023-01-04T11:08:08.080Z,8.40
2023-01-04T11:09:24.824Z,7.68
2023-01-04T11:10:32.698Z,7.30
2023-01-04T11:11:43.486Z,8.25
2023-01-04T11:12:47.110Z,8.35
2023-01-04T11:13:51.304Z,7.70
2023-01-04T11:14:54.822Z,8.27
2023-01-04T11:15:59.321Z,8.40
2023-01-04T11:17:06.020Z,8.20
2023-01-04T11:18:11.780Z,8.68
2023-01-04T11:19:15.671Z,8.82
2023-01-04T11:20:22.730Z,9.50
2023-01-04T11:21:34.509Z,9.38
2023-01-04T11:22:43.520Z,9.75
2023-01-04T11:23:47.457Z,9.95
2023-01-04T11:25:33.110Z,10.43
2023-01-04T11:26:22.733Z,9.95
2023-01-04T11:27:28.956Z,10.82
2023-01-04T11:28:38.549Z,10.73
2023-01-04T11:29:47.869Z,11.02
2023-01-04T11:31:00.166Z,11.18
2023-01-04T11:32:12.772Z,10.77
2023-01-04T11:33:18.928Z,11.07
2023-01-04T11:34:46.835Z,11.13
2023-01-04T11:35:51.960Z,10.27
2023-01-04T11:36:55.238Z,11.10
2023-01-04T11:38:11.997Z,11.02
2023-01-04T11:39:25.552Z,10.60
2023-01-04T11:40:29.479Z,10.30
2023-01-04T11:41:31.847Z,9.95
2023-01-04T11:42:35.287Z,11.18
2023-01-04T11:43:40.107Z,10.05
2023-01-04T11:44:42.338Z,10.48
2023-01-04T11:45:57.709Z,10.85
2023-01-04T11:47:08.802Z,10.10
2023-01-04T11:48:15.638Z,10.43
2023-01-04T11:49:20.829Z,9.98
2023-01-04T11:50:40.286Z,9.68
2023-01-04T11:51:44.052Z,9.73
2023-01-04T11:52:47.749Z,9.93
2023-01-04T11:53:59.582Z,8.93
2023-01-04T11:55:25.328Z,9.50
2023-01-04T11:56:30.556Z,9.27
2023-01-04T11:57:35.232Z,8.75
2023-01-04T11:58:38.037Z,9.38
2023-01-04T11:59:41.634Z,9.57
2023-01-04T12:00:51.331Z,9.68
2023-01-04T12:02:42.737Z,8.60
2023-01-04T12:03:43.092Z,8.83
2023-01-04T12:04:46.499Z,9.65
2023-01-04T12:05:49.148Z,9.07
2023-01-04T12:06:56.855Z,9.02
2023-01-04T12:08:00.716Z,9.63
2023-01-04T12:09:04.304Z,10.20
2023-01-04T12:10:24.759Z,8.85
2023-01-04T12:11:31.818Z,9.93
2023-01-04T12:12:34.598Z,9.40
2023-01-04T12:13:39.755Z,9.95
2023-01-04T12:14:49.176Z,10.07
2023-01-04T12:16:05.304Z,9.10
2023-01-04T12:17:14.968Z,9.80
2023-01-04T12:18:24.270Z,9.32
2023-01-04T12:19:28.277Z,9.90
2023-01-04T12:20:32.217Z,9.50
2023-01-04T12:21:36.905Z,9.55
2023-01-04T12:22:41.905Z,9.70
2023-01-04T12:23:44.787Z,10.55
2023-01-04T12:24:49.843Z,9.85
2023-01-04T12:25:57.641Z,9.70
2023-01-04T12:27:02.600Z,10.30
2023-01-04T12:28:05.333Z,10.13
2023-01-04T12:29:44.401Z,10.32
2023-01-04T12:30:48.225Z,9.90
2023-01-04T12:31:50.669Z,10.77
2023-01-04T12:32:54.224Z,10.18
2023-01-04T12:33:58.747Z,10.15
2023-01-04T12:35:02.260Z,10.68
2023-01-04T12:36:08.228Z,9.82
2023-01-04T12:37:32.085Z,9.83
2023-01-04T12:39:01.767Z,10.27
2023-01-04T12:40:06.037Z,10.20
2023-01-04T12:41:10.002Z,9.90
2023-01-04T12:42:19.727Z,9.70
2023-01-04T12:43:28.141Z,9.82
2023-01-04T12:45:19.947Z,9.68
2023-01-04T12:47:00.045Z,9.60
2023-01-04T12:48:53.375Z,9.13
2023-01-04T12:50:03.547Z,8.32
2023-01-04T12:51:31.587Z,9.43
2023-01-04T12:54:23.482Z,8.90
2023-01-04T12:55:48.209Z,9.00
2023-01-04T12:57:25.627Z,9.02
2023-01-04T13:01:01.631Z,9.30
2023-01-04T13:02:23.104Z,8.90
2023-01-04T13:03:36.666Z,8.07
2023-01-04T13:04:44.111Z,8.15
2023-01-04T13:05:56.929Z,9.47
2023-01-04T13:07:15.397Z,8.63
2023-01-04T13:08:19.352Z,8.70
2023-01-04T13:09:25.217Z,8.65
2023-01-04T13:10:34.436Z,8.70
2023-01-04T13:12:12.527Z,8.85
2023-01-04T13:13:30.273Z,8.43
2023-01-04T13:14:40.776Z,7.63
2023-01-04T13:15:56.163Z,8.52
2023-01-04T13:17:15.855Z,10.82
2023-01-04T13:18:37.810Z,11.93
2023-01-04T13:19:41.821Z,11.85
2023-01-04T13:20:45.401Z,10.25
2023-01-04T13:21:53.434Z,11.60
2023-01-04T13:22:59.842Z,10.80
2023-01-04T13:24:06.363Z,10.98
2023-01-04T13:25:14.825Z,9.75
2023-01-04T13:26:40.204Z,9.52
2023-01-04T13:27:56.854Z,9.48
2023-01-04T13:29:15.744Z,8.70
2023-01-04T13:30:31.182Z,8.60
2023-01-04T13:31:43.169Z,9.13
2023-01-04T13:33:24.316Z,9.90
2023-01-04T13:34:18.604Z,9.13
2023-01-04T13:35:22.412Z,8.85
2023-01-04T13:36:24.919Z,9.18
2023-01-04T13:37:31.010Z,10.10
2023-01-04T13:38:34.781Z,9.65
2023-01-04T13:39:40.463Z,9.70
2023-01-04T13:40:49.393Z,9.30
2023-01-04T13:41:53.971Z,9.50
2023-01-04T13:43:23.280Z,9.63
2023-01-04T13:45:22.143Z,9.63
2023-01-04T13:46:21.056Z,9.70
2023-01-04T13:47:23.800Z,9.40
2023-01-04T13:48:29.980Z,9.82
2023-01-04T13:49:32.404Z,9.73
2023-01-04T13:50:38.119Z,10.13
2023-01-04T13:51:41.800Z,9.43
2023-01-04T13:52:56.389Z,9.98
2023-01-04T13:54:06.393Z,10.53
2023-01-04T13:55:19.790Z,10.90
2023-01-04T13:56:25.581Z,10.50
2023-01-04T13:57:28.242Z,10.60
2023-01-04T13:58:33.012Z,11.27
2023-01-04T13:59:37.424Z,10.20
2023-01-04T14:00:47.020Z,9.80
2023-01-04T14:01:52.078Z,10.52
2023-01-04T14:03:21.287Z,10.00
2023-01-04T14:04:28.250Z,10.13
2023-01-04T14:05:30.646Z,10.87
2023-01-04T14:06:40.724Z,10.20
2023-01-04T14:07:43.993Z,11.38
2023-01-04T14:08:54.592Z,10.50
2023-01-04T14:10:00.177Z,11.05
2023-01-04T14:11:03.341Z,10.30
2023-01-04T14:12:15.724Z,10.07
2023-01-04T14:13:20.361Z,10.80
2023-01-04T14:14:31.075Z,11.02
2023-01-04T14:15:34.980Z,9.80
2023-01-04T14:16:38.600Z,10.33
2023-01-04T14:17:50.904Z,10.25
2023-01-04T14:18:53.264Z,10.30
2023-01-04T14:19:58.162Z,10.68
2023-01-04T14:21:01.553Z,10.07
2023-01-04T14:22:29.077Z,10.07
2023-01-04T14:23:37.548Z,9.35
2023-01-04T14:25:08.449Z,9.68
2023-01-04T14:26:03.482Z,9.15
2023-01-04T14:27:37.313Z,9.90
2023-01-04T14:30:23.790Z,10.10
2023-01-04T14:31:37.583Z,10.60
2023-01-04T14:32:40.335Z,9.70
2023-01-04T14:33:46.747Z,10.45
2023-01-04T14:34:50.362Z,10.68
2023-01-04T14:36:02.764Z,10.80
2023-01-04T14:37:06.346Z,10.73
2023-01-04T14:38:15.043Z,10.35
2023-01-04T14:39:26.796Z,9.10
2023-01-04T14:40:32.428Z,9.40
2023-01-04T14:41:37.682Z,10.48
2023-01-04T14:42:41.193Z,10.02
2023-01-04T14:43:46.487Z,10.15
2023-01-04T14:44:49.804Z,10.18
2023-01-04T14:45:52.201Z,10.20
2023-01-04T14:46:59.052Z,8.95
2023-01-04T14:48:02.464Z,9.40
2023-01-04T14:49:06.307Z,9.45
2023-01-04T14:50:10.687Z,9.27
2023-01-04T14:51:17.035Z,8.60
2023-01-04T14:52:23.899Z,8.43
2023-01-04T14:53:26.263Z,8.82
2023-01-04T14:54:31.827Z,9.70
2023-01-04T14:55:35.390Z,9.45
2023-01-04T14:56:39.628Z,9.70
2023-01-04T14:57:45.045Z,9.40
2023-01-04T14:58:47.534Z,8.82
2023-01-04T14:59:50.998Z,8.45
2023-01-04T15:00:53.619Z,9.15
2023-01-04T15:01:59.680Z,9.83
2023-01-04T15:03:02.300Z,9.70
2023-01-04T15:04:06.111Z,8.88
2023-01-04T15:05:10.555Z,9.30
2023-01-04T15:06:13.933Z,9.45
2023-01-04T15:07:36.239Z,9.32
2023-01-04T15:08:39.286Z,9.27
2023-01-04T15:09:43.071Z,9.60
2023-01-04T15:10:46.324Z,10.00